Tijnje, Netherlands
Current Conditions -  °F | °C
As of 3:34 PM on Thursday 29 Jan 2015 (Local Time) from EHLW Reporting Station
Light Rain Light Rain  
Wind Chill: 23°   Ceiling: 3400
Heat Index: 34°   Visibility: 6mi
Dew Point: 34°   Wind: 17mph
Humidity: 100%   Direction: 230°SW
Pressure: 28.82"   Gusts: NA
Location:  53.03°N, 5.99°E
Report Text: EHLW 291434Z AUTO 23015KT 9999 -RA FEW020 SCT025 BKN034 01/01 Q0976 RERA REDZ BLU 24014G25KT 9999 SCT022 BKN050 TEMPO 4000 SHRASN FEW006 SCT0180CB BKN035
Loading
Personal Weather Stations






























Interactive Weather Map New forecast layout! Learn more

10-Day Weather Forecast

Advertisements
Track Severe Weather on mobile